^^
Grace C. Lehan Memorial Weather Station Historical Data
Daily Summary for January 2, 2021 Units:  Metric    English   Both
Daily Weekly Monthly Yearly
  High: Low: Average:
Temperature: 26.8 °C 17 °C 22.1 °C
Dew Point: 18 °C 14.3 °C 16.7 °C
Humidity: 95.2% 51.8% 73%
Wind Speed: 10.9km/h 0km/h 2.6km/h
Wind Gust: 27.4km/h - -
Wind- - WNW
Pressure: 1016.8 hPa 1008.4 hPa -
Precipitation: 0 mm    
 
 
Tabular Data for January 2, 2021
Time Temperature Dew Point Pressure Wind Wind Speed Wind Gust Humidity Rainfall Rate (Hourly) solar
00:00 18.8 °C 17.4 °C 1008.7 hPa Calm     92% 0 mm 0 W/m2
00:09 18.7 °C 17.4 °C 1008.7 hPa Calm     91.7% 0 mm 0 W/m2
00:14 18.7 °C 17.2 °C 1008.7 hPa Calm     91.1% 0 mm 0 W/m2
00:19 18.6 °C 17 °C 1008.7 hPa Calm     90.6% 0 mm 0 W/m2
00:24 18.6 °C 16.9 °C 1008.7 hPa Calm     90% 0 mm 0 W/m2
00:29 18.6 °C 16.9 °C 1008.7 hPa Calm     90% 0 mm 0 W/m2
00:34 18.6 °C 16.9 °C 1008.7 hPa Calm     90% 0 mm 0 W/m2
00:39 18.6 °C 17.1 °C 1008.7 hPa Calm     91% 0 mm 0 W/m2
00:44 18.6 °C 17.1 °C 1008.7 hPa Calm     91.1% 0 mm 0 W/m2
00:49 18.6 °C 17.1 °C 1009 hPa Calm     91.2% 0 mm 0 W/m2
00:54 18.6 °C 17.1 °C 1009 hPa Calm     91% 0 mm 0 W/m2
00:59 18.6 °C 17.1 °C 1009 hPa Calm     91% 0 mm 0 W/m2
01:04 18.6 °C 17.2 °C 1009 hPa Calm     91.4% 0 mm 0 W/m2
01:09 18.6 °C 17.3 °C 1009 hPa Calm     92% 0 mm 0 W/m2
01:14 18.6 °C 17.2 °C 1009 hPa Calm     92% 0 mm 0 W/m2
01:19 18.5 °C 17.2 °C 1009 hPa Calm     92% 0 mm 0 W/m2
01:24 18.5 °C 17.2 °C 1009 hPa Calm     92% 0 mm 0 W/m2
01:29 18.6 °C 17.2 °C 1009 hPa Calm     92% 0 mm 0 W/m2
01:34 18.6 °C 17.2 °C 1009 hPa Calm     92% 0 mm 0 W/m2
01:39 18.6 °C 17.2 °C 1009 hPa Calm     92% 0 mm 0 W/m2
01:44 18.5 °C 17.2 °C 1009 hPa Calm     92.3% 0 mm 0 W/m2
01:49 18.5 °C 17.3 °C 1009.4 hPa Calm     93% 0 mm 0 W/m2
01:54 18.5 °C 17.3 °C 1009 hPa Calm     93% 0 mm 0 W/m2
01:59 18.5 °C 17.3 °C 1009 hPa Calm     93% 0 mm 0 W/m2
02:04 18.6 °C 17.4 °C 1009 hPa Calm     93% 0 mm 0 W/m2
02:09 18.6 °C 17.4 °C 1009 hPa Calm     93% 0 mm 0 W/m2
02:14 18.6 °C 17.4 °C 1009 hPa Calm     93% 0 mm 0 W/m2
02:19 18.5 °C 17.4 °C 1009 hPa Calm     93% 0 mm 0 W/m2
02:24 18.5 °C 17.3 °C 1009 hPa Calm     93% 0 mm 0 W/m2
02:29 18.4 °C 17.3 °C 1008.7 hPa Calm     93% 0 mm 0 W/m2
02:34 18.4 °C 17.3 °C 1008.7 hPa Calm     93% 0 mm 0 W/m2
02:39 18.4 °C 17.2 °C 1008.7 hPa Calm     93% 0 mm 0 W/m2
02:44 18.3 °C 17.2 °C 1008.7 hPa Calm     93% 0 mm 0 W/m2
02:49 18.3 °C 17.1 °C 1008.7 hPa Calm     93% 0 mm 0 W/m2
02:54 18.3 °C 17.1 °C 1008.7 hPa Calm     93% 0 mm 0 W/m2
02:59 18.3 °C 17.1 °C 1008.7 hPa Calm     93% 0 mm 0 W/m2
03:04 18.3 °C 17.1 °C 1008.7 hPa Calm     93% 0 mm 0 W/m2
03:09 18.3 °C 17.1 °C 1008.7 hPa Calm     93% 0 mm 0 W/m2
03:14 18.3 °C 17.3 °C 1008.7 hPa Calm     93.9% 0 mm 0 W/m2
03:19 18.3 °C 17.3 °C 1008.7 hPa Calm     94% 0 mm 0 W/m2
03:24 18.3 °C 17.3 °C 1008.7 hPa Calm     94% 0 mm 0 W/m2
03:29 18.3 °C 17.3 °C 1008.7 hPa Calm     94% 0 mm 0 W/m2
03:34 18.3 °C 17.3 °C 1008.7 hPa Calm     94% 0 mm 0 W/m2
03:39 18.3 °C 17.3 °C 1008.4 hPa Calm     94% 0 mm 0 W/m2
03:44 18.3 °C 17.3 °C 1008.4 hPa Calm     94% 0 mm 0 W/m2
03:49 18.2 °C 17.2 °C 1008.4 hPa Calm     94% 0 mm 0 W/m2
03:54 18.2 °C 17.2 °C 1008.4 hPa Calm     94% 0 mm 0 W/m2
03:59 18.1 °C 17.2 °C 1008.7 hPa Calm     94% 0 mm 0 W/m2
04:00 18.1 °C 17.1 °C 1008.4 hPa Calm     94% 0 mm 0 W/m2
04:09 18.1 °C 17.1 °C 1008.7 hPa Calm     94% 0 mm 0 W/m2
04:14 18 °C 17 °C 1009 hPa Calm     94% 0 mm 0 W/m2
04:19 18 °C 17 °C 1009 hPa Calm     94% 0 mm 0 W/m2
04:24 18 °C 17 °C 1009 hPa Calm     94% 0 mm 0 W/m2
04:29 18 °C 17 °C 1008.7 hPa Calm     94% 0 mm 0 W/m2
04:34 17.9 °C 17 °C 1009 hPa Calm     94% 0 mm 0 W/m2
04:39 17.9 °C 16.9 °C 1009 hPa Calm     94% 0 mm 0 W/m2
04:44 17.9 °C 16.9 °C 1008.7 hPa Calm     94% 0 mm 0 W/m2
04:49 17.8 °C 16.8 °C 1008.7 hPa Calm     94% 0 mm 0 W/m2
04:54 17.8 °C 16.8 °C 1008.7 hPa Calm     94% 0 mm 0 W/m2
04:59 17.7 °C 16.7 °C 1008.7 hPa Calm     94% 0 mm 0 W/m2
05:04 17.6 °C 16.7 °C 1008.7 hPa Calm     94% 0 mm 0 W/m2
05:09 17.6 °C 16.6 °C 1009 hPa Calm     94% 0 mm 0 W/m2
05:14 17.5 °C 16.5 °C 1009 hPa Calm     94% 0 mm 0 W/m2
05:19 17.4 °C 16.4 °C 1009 hPa Calm     94% 0 mm 0 W/m2
05:24 17.3 °C 16.4 °C 1009 hPa Calm     94% 0 mm 0 W/m2
05:29 17.3 °C 16.3 °C 1009 hPa Calm     94% 0 mm 0 W/m2
05:34 17.2 °C 16.3 °C 1009 hPa Calm     94% 0 mm 0 W/m2
05:39 17.2 °C 16.2 °C 1009.4 hPa Calm     94% 0 mm 0 W/m2
05:44 17.2 °C 16.2 °C 1009.4 hPa Calm     94% 0 mm 0 W/m2
05:49 17.2 °C 16.2 °C 1009.4 hPa Calm     94% 0 mm 0 W/m2
05:54 17.2 °C 16.3 °C 1009.4 hPa Calm     94.3% 0 mm 0 W/m2
05:59 17.2 °C 16.2 °C 1009.4 hPa Calm   1.6 km/h 94% 0 mm 5 W/m2
06:04 17.2 °C 16.2 °C 1009.4 hPa Calm   1.6 km/h 94% 0 mm 7 W/m2
06:09 17.1 °C 16.1 °C 1009.4 hPa Calm     94% 0 mm 11 W/m2
06:14 17 °C 16.1 °C 1009.7 hPa Calm     94% 0 mm 14 W/m2
06:19 17 °C 16 °C 1009.7 hPa Calm     94% 0 mm 16 W/m2
06:24 17 °C 16 °C 1009.7 hPa Calm     94% 0 mm 18 W/m2
06:29 17 °C 16.1 °C 1009.7 hPa Calm     94.7% 0 mm 19 W/m2
06:34 17 °C 16.2 °C 1009.7 hPa Calm     95% 0 mm 21 W/m2
06:39 17.1 °C 16.3 °C 1009.7 hPa Calm     95% 0 mm 26 W/m2
06:44 17.1 °C 16.3 °C 1010 hPa Calm     95% 0 mm 32 W/m2
06:49 17.2 °C 16.3 °C 1010 hPa Calm     95% 0 mm 42 W/m2
06:54 17.3 °C 16.4 °C 1010 hPa Calm     95% 0 mm 95 W/m2
06:59 17.4 °C 16.6 °C 1010 hPa Calm     95% 0 mm 130 W/m2
07:04 17.6 °C 16.8 °C 1010 hPa Calm     95% 0 mm 144 W/m2
07:09 17.9 °C 17.1 °C 1010 hPa SSW 0.2 km/h 3.2 km/h 95.2% 0 mm 155 W/m2
07:14 18.2 °C 17.4 °C 1010 hPa Calm   3.2 km/h 95% 0 mm 167 W/m2
07:19 18.6 °C 17.8 °C 1010.4 hPa SSW 0.2 km/h 4.8 km/h 95% 0 mm 183 W/m2
07:24 18.9 °C 17.8 °C 1010.4 hPa SW 0.5 km/h 4.8 km/h 93.2% 0 mm 204 W/m2
07:29 19.4 °C 17.8 °C 1010.4 hPa WNW 0.2 km/h 4.8 km/h 90.6% 0 mm 221 W/m2
07:34 19.8 °C 17.7 °C 1010.4 hPa Calm   4.8 km/h 88% 0 mm 241 W/m2
07:39 20.2 °C 17.8 °C 1010.4 hPa Calm     86.6% 0 mm 262 W/m2
07:44 20.4 °C 17.8 °C 1010.4 hPa Calm     85% 0 mm 274 W/m2
07:49 20.7 °C 17.7 °C 1010.4 hPa Calm     82.8% 0 mm 292 W/m2
07:54 20.9 °C 17.7 °C 1010.4 hPa Calm     81.7% 0 mm 316 W/m2
07:59 21.1 °C 17.9 °C 1010.4 hPa WNW 0.3 km/h 4.8 km/h 81.7% 0 mm 329 W/m2
08:00 21.2 °C 17.8 °C 1010.4 hPa Calm   4.8 km/h 81% 0 mm 329 W/m2
08:09 21.4 °C 17.9 °C 1010.4 hPa WNW 3.7 km/h 16.1 km/h 80.3% 0 mm 362 W/m2
08:14 21.4 °C 17.5 °C 1010.4 hPa WNW 4.3 km/h 16.1 km/h 78.2% 0 mm 381 W/m2
08:19 21.5 °C 17.6 °C 1010.7 hPa WNW 3.7 km/h 16.1 km/h 78.4% 0 mm 397 W/m2
08:24 21.7 °C 17.7 °C 1010.7 hPa WNW 1.9 km/h 16.1 km/h 78.2% 0 mm 411 W/m2
08:29 21.8 °C 17.8 °C 1010.7 hPa NW 3.5 km/h 16.1 km/h 77.8% 0 mm 432 W/m2
08:34 22 °C 17.6 °C 1010.7 hPa WNW 5 km/h 16.1 km/h 75.8% 0 mm 459 W/m2
08:39 22.1 °C 17.7 °C 1010.7 hPa West 1 km/h 16.1 km/h 76.5% 0 mm 462 W/m2
08:44 22.2 °C 18 °C 1010.7 hPa WNW 6 km/h 19.3 km/h 77% 0 mm 478 W/m2
08:49 22.3 °C 17.6 °C 1010.7 hPa WNW 5.3 km/h 19.3 km/h 74.8% 0 mm 512 W/m2
08:54 22.2 °C 17.9 °C 1010.7 hPa WNW 4.7 km/h 19.3 km/h 76.3% 0 mm 536 W/m2
08:59 22.4 °C 17.8 °C 1010.7 hPa WNW 4.2 km/h 19.3 km/h 75.3% 0 mm 540 W/m2
09:04 22.6 °C 17.8 °C 1010.7 hPa WNW 5.3 km/h 19.3 km/h 74.1% 0 mm 564 W/m2
09:09 22.7 °C 17.5 °C 1010.7 hPa NW 5.1 km/h 17.7 km/h 72.5% 0 mm 580 W/m2
09:14 22.7 °C 17.6 °C 1010.7 hPa NW 3.4 km/h 17.7 km/h 72.8% 0 mm 649 W/m2
09:19 22.8 °C 17.6 °C 1010.7 hPa NW 2.1 km/h 17.7 km/h 72.6% 0 mm 649 W/m2
09:24 22.8 °C 17.6 °C 1010.7 hPa NW 4 km/h 17.7 km/h 72.6% 0 mm 302 W/m2
09:29 22.6 °C 17.2 °C 1010.7 hPa NW 4.3 km/h 17.7 km/h 71.4% 0 mm 174 W/m2
09:34 22.2 °C 16.9 °C 1010.7 hPa NW 6.3 km/h 17.7 km/h 71.8% 0 mm 185 W/m2
09:39 21.9 °C 16.8 °C 1010.7 hPa WNW 2.3 km/h 16.1 km/h 73% 0 mm 213 W/m2
09:44 21.7 °C 16.8 °C 1010.7 hPa NW 3.7 km/h 16.1 km/h 73.8% 0 mm 236 W/m2
09:49 21.6 °C 16.8 °C 1011.1 hPa NW 2.3 km/h 16.1 km/h 74% 0 mm 151 W/m2
09:54 21.5 °C 16.9 °C 1011.1 hPa NW 2.1 km/h 16.1 km/h 74.9% 0 mm 144 W/m2
09:59 21.4 °C 16.8 °C 1011.1 hPa NNW 5 km/h 16.1 km/h 75% 0 mm 137 W/m2
10:04 21.4 °C 16.8 °C 1011.1 hPa NNW 3.7 km/h 16.1 km/h 74.9% 0 mm 239 W/m2
10:09 21.4 °C 17.1 °C 1011.1 hPa WNW 6 km/h 17.7 km/h 76% 0 mm 221 W/m2
10:14 21.7 °C 16.9 °C 1011.1 hPa WNW 2.4 km/h 17.7 km/h 74.1% 0 mm 304 W/m2
10:19 21.9 °C 17.1 °C 1011.1 hPa NW 4.2 km/h 20.9 km/h 74.1% 0 mm 185 W/m2
10:24 21.9 °C 16.7 °C 1011.4 hPa WNW 7.6 km/h 24.1 km/h 72% 0 mm 206 W/m2
10:29 21.8 °C 16.5 °C 1011.4 hPa WNW 7.4 km/h 24.1 km/h 71.8% 0 mm 202 W/m2
10:34 21.8 °C 16.7 °C 1011.4 hPa WNW 5.3 km/h 24.1 km/h 72.6% 0 mm 320 W/m2
10:39 21.9 °C 16.6 °C 1011.4 hPa NW 5.5 km/h 24.1 km/h 71.9% 0 mm 250 W/m2
10:44 21.9 °C 16.4 °C 1011.4 hPa NW 9.8 km/h 24.1 km/h 70.7% 0 mm 482 W/m2
10:49 22 °C 16.4 °C 1011.4 hPa NNW 7.1 km/h 25.7 km/h 70.5% 0 mm 997 W/m2
10:54 22.3 °C 16.9 °C 1011.7 hPa NW 7.9 km/h 25.7 km/h 71.3% 0 mm 1009 W/m2
10:59 22.6 °C 16.3 °C 1011.7 hPa NNW 8.4 km/h 25.7 km/h 67.9% 0 mm 570 W/m2
11:04 22.5 °C 16.4 °C 1011.7 hPa NW 7.2 km/h 25.7 km/h 68.2% 0 mm 570 W/m2
11:09 22.5 °C 16.4 °C 1011.7 hPa WNW 5.5 km/h 20.9 km/h 68.2% 0 mm 1076 W/m2
11:14 22.8 °C 16.9 °C 1011.7 hPa WNW 5.6 km/h 20.9 km/h 69.5% 0 mm 928 W/m2
11:19 23.5 °C 17.4 °C 1011.7 hPa NW 4.5 km/h 20.9 km/h 68.8% 0 mm 965 W/m2
11:24 24.1 °C 17.2 °C 1011.7 hPa WNW 6.9 km/h 20.9 km/h 65.4% 0 mm 983 W/m2
11:29 24.4 °C 17.2 °C 1011.7 hPa NW 6 km/h 20.9 km/h 64.1% 0 mm 1100 W/m2
11:34 24.6 °C 17.2 °C 1011.7 hPa NW 4.8 km/h 20.9 km/h 63.5% 0 mm 253 W/m2
11:39 24.6 °C 17.3 °C 1011.7 hPa NW 4.2 km/h 17.7 km/h 63.9% 0 mm 1062 W/m2
11:44 24.7 °C 17.3 °C 1011.7 hPa WNW 5.3 km/h 17.7 km/h 63.5% 0 mm 320 W/m2
11:49 24.8 °C 17.3 °C 1011.7 hPa NW 6.1 km/h 25.7 km/h 63.3% 0 mm 1111 W/m2
11:54 24.9 °C 17.3 °C 1011.7 hPa NW 10.3 km/h 25.7 km/h 62.8% 0 mm 1046 W/m2
11:59 25 °C 17.2 °C 1011.7 hPa WNW 9 km/h 25.7 km/h 62% 0 mm 1055 W/m2
12:00 25.1 °C 17.6 °C 1011.7 hPa WNW 3.2 km/h 25.7 km/h 63% 0 mm 1055 W/m2
12:09 25.7 °C 17.3 °C 1011.7 hPa WNW 9.7 km/h 25.7 km/h 59.9% 0 mm 1097 W/m2
12:14 25.7 °C 16.6 °C 1011.7 hPa WNW 9.2 km/h 25.7 km/h 57.4% 0 mm 1042 W/m2
12:19 25.4 °C 16.4 °C 1011.7 hPa WNW 10.9 km/h 25.7 km/h 57.3% 0 mm 1155 W/m2
12:24 25.3 °C 17.2 °C 1011.7 hPa WNW 5.8 km/h 25.7 km/h 60.7% 0 mm 1155 W/m2
12:29 25.4 °C 17 °C 1011.7 hPa West 7.2 km/h 25.7 km/h 59.6% 0 mm 979 W/m2
12:34 25.3 °C 16.4 °C 1011.7 hPa WNW 10.3 km/h 27.4 km/h 57.5% 0 mm 942 W/m2
12:39 25.2 °C 16.8 °C 1011.7 hPa West 7.1 km/h 27.4 km/h 59.4% 0 mm 942 W/m2
12:44 25.3 °C 16.9 °C 1011.7 hPa NW 4.2 km/h 27.4 km/h 59.7% 0 mm 951 W/m2
12:49 25.6 °C 17 °C 1011.7 hPa WNW 6 km/h 27.4 km/h 59.3% 0 mm 988 W/m2
12:54 25.7 °C 16.6 °C 1011.7 hPa WNW 10.6 km/h 27.4 km/h 57.1% 0 mm 986 W/m2
12:59 25.7 °C 16.7 °C 1011.7 hPa WNW 6.1 km/h 27.4 km/h 57.4% 0 mm 988 W/m2
13:04 25.7 °C 16.7 °C 1011.7 hPa WNW 8.9 km/h 27.4 km/h 57.4% 0 mm 998 W/m2
13:09 25.8 °C 17.1 °C 1011.7 hPa NW 2.9 km/h 22.5 km/h 58.4% 0 mm 958 W/m2
13:14 26 °C 16.9 °C 1011.7 hPa NW 6.9 km/h 25.7 km/h 57.4% 0 mm 954 W/m2
13:19 26.1 °C 16.8 °C 1011.7 hPa WNW 8.7 km/h 25.7 km/h 56.6% 0 mm 954 W/m2
13:24 26.2 °C 16.7 °C 1011.7 hPa NW 8.4 km/h 25.7 km/h 55.7% 0 mm 954 W/m2
13:29 26.2 °C 16.6 °C 1011.7 hPa WNW 7.6 km/h 25.7 km/h 55.2% 0 mm 953 W/m2
13:34 26.3 °C 16.9 °C 1011.7 hPa WNW 5 km/h 25.7 km/h 56.2% 0 mm 953 W/m2
13:39 26.4 °C 16.5 °C 1011.7 hPa WNW 9.5 km/h 24.1 km/h 54.6% 0 mm 953 W/m2
13:44 26.4 °C 16.4 °C 1011.7 hPa WNW 7.2 km/h 24.1 km/h 54.5% 0 mm 963 W/m2
13:49 26.3 °C 16.3 °C 1011.7 hPa WNW 5.8 km/h 24.1 km/h 54.1% 0 mm 970 W/m2
13:54 26.4 °C 16.8 °C 1011.7 hPa WNW 7.6 km/h 25.7 km/h 55.2% 0 mm 1005 W/m2
13:59 26.6 °C 16.5 °C 1011.7 hPa West 5.6 km/h 25.7 km/h 54% 0 mm 1005 W/m2
14:04 26.5 °C 16.9 °C 1011.7 hPa WNW 4 km/h 25.7 km/h 55.7% 0 mm 1065 W/m2
14:09 26.6 °C 16.7 °C 1012.1 hPa WNW 5.6 km/h 22.5 km/h 54.8% 0 mm 1060 W/m2
14:14 26.4 °C 16.6 °C 1012.1 hPa WNW 7.1 km/h 22.5 km/h 55% 0 mm 1113 W/m2
14:19 26.4 °C 16.9 °C 1012.1 hPa WNW 1.9 km/h 22.5 km/h 56.2% 0 mm 1095 W/m2
14:24 26.7 °C 17.2 °C 1012.1 hPa NW 7.4 km/h 22.5 km/h 56.2% 0 mm 1074 W/m2
14:29 26.7 °C 16.6 °C 1012.1 hPa WNW 3.7 km/h 22.5 km/h 53.9% 0 mm 691 W/m2
14:34 26.5 °C 16.8 °C 1012.1 hPa WNW 4 km/h 22.5 km/h 55.1% 0 mm 244 W/m2
14:39 26.3 °C 16.6 °C 1012.1 hPa NW 3.9 km/h 19.3 km/h 55.3% 0 mm 227 W/m2
14:44 26.2 °C 16.6 °C 1012.1 hPa North 1.6 km/h 19.3 km/h 55.2% 0 mm 953 W/m2
14:49 26.4 °C 16.7 °C 1012.1 hPa NNW 1.9 km/h 19.3 km/h 55% 0 mm 949 W/m2
14:54 26.5 °C 16.3 °C 1012.1 hPa WNW 2.1 km/h 19.3 km/h 53.6% 0 mm 916 W/m2
14:59 26.4 °C 16.5 °C 1012.1 hPa WNW 1.9 km/h 19.3 km/h 54.7% 0 mm 909 W/m2
15:04 26.3 °C 16.7 °C 1012.1 hPa WNW 8.9 km/h 19.3 km/h 55.5% 0 mm 911 W/m2
15:09 26.3 °C 16.1 °C 1012.1 hPa West 6.4 km/h 22.5 km/h 53.6% 0 mm 944 W/m2
15:14 26.5 °C 16.3 °C 1012.1 hPa West 6.1 km/h 22.5 km/h 53.4% 0 mm 991 W/m2
15:19 26.6 °C 16.7 °C 1012.1 hPa NW 3.1 km/h 22.5 km/h 54.6% 0 mm 265 W/m2
15:24 26.6 °C 16.8 °C 1012.4 hPa NW 1.3 km/h 22.5 km/h 54.9% 0 mm 944 W/m2
15:29 26.8 °C 16.4 °C 1012.1 hPa NNW 2.9 km/h 22.5 km/h 53% 0 mm 944 W/m2
15:34 26.8 °C 16.4 °C 1012.4 hPa WNW 5.1 km/h 24.1 km/h 52.7% 0 mm 292 W/m2
15:39 26.8 °C 16.4 °C 1012.1 hPa NW 5.5 km/h 24.1 km/h 53% 0 mm 842 W/m2
15:44 26.7 °C 16.3 °C 1012.4 hPa NW 7.4 km/h 24.1 km/h 52.6% 0 mm 896 W/m2
15:49 26.8 °C 16.1 °C 1012.4 hPa NW 3.4 km/h 24.1 km/h 51.8% 0 mm 269 W/m2
15:54 26.7 °C 16.1 °C 1012.4 hPa WNW 2.6 km/h 24.1 km/h 52% 0 mm 851 W/m2
15:59 26.7 °C 16.2 °C 1012.4 hPa WNW 3.7 km/h 24.1 km/h 52.8% 0 mm 151 W/m2
16:00 26.6 °C 15.9 °C 1012.4 hPa WNW 0.5 km/h 24.1 km/h 52% 0 mm 118 W/m2
16:09 26.6 °C 16.3 °C 1012.4 hPa WNW 6 km/h 17.7 km/h 53.3% 0 mm 729 W/m2
16:14 26.6 °C 16.3 °C 1012.4 hPa NW 4.5 km/h 17.7 km/h 53.4% 0 mm 733 W/m2
16:19 26.5 °C 16.3 °C 1012.4 hPa NW 3.2 km/h 17.7 km/h 53.5% 0 mm 714 W/m2
16:24 26.4 °C 16.4 °C 1012.4 hPa WNW 6.8 km/h 17.7 km/h 54% 0 mm 51 W/m2
16:29 26.4 °C 16.3 °C 1012.4 hPa WNW 5.3 km/h 17.7 km/h 53.8% 0 mm 47 W/m2
16:34 26.4 °C 16.4 °C 1012.8 hPa NW 4.8 km/h 20.9 km/h 54% 0 mm 53 W/m2
16:39 26.4 °C 16.1 °C 1012.8 hPa WNW 7.7 km/h 20.9 km/h 53.2% 0 mm 53 W/m2
16:44 26.3 °C 16.5 °C 1012.8 hPa West 3.2 km/h 20.9 km/h 54.8% 0 mm 51 W/m2
16:49 26.3 °C 16.3 °C 1012.8 hPa WNW 4.7 km/h 22.5 km/h 54.2% 0 mm 54 W/m2
16:54 26.3 °C 16.3 °C 1012.8 hPa WSW 2.9 km/h 22.5 km/h 54.3% 0 mm 56 W/m2
16:59 26.3 °C 16.1 °C 1013.1 hPa West 6.3 km/h 22.5 km/h 53.6% 0 mm 42 W/m2
17:04 26.3 °C 15.9 °C 1013.1 hPa WNW 4.5 km/h 22.5 km/h 52.8% 0 mm 40 W/m2
17:09 26.2 °C 15.8 °C 1013.1 hPa WNW 7.2 km/h 24.1 km/h 52.8% 0 mm 40 W/m2
17:14 26.1 °C 15.7 °C 1013.1 hPa NW 5.5 km/h 24.1 km/h 52.8% 0 mm 40 W/m2
17:19 26.1 °C 15.9 °C 1013.1 hPa WSW 2.9 km/h 24.1 km/h 53.5% 0 mm 39 W/m2
17:24 26.1 °C 16 °C 1013.1 hPa WNW 5.8 km/h 24.1 km/h 53.7% 0 mm 37 W/m2
17:29 26.1 °C 15.5 °C 1013.1 hPa NNW 3.9 km/h 24.1 km/h 52.3% 0 mm 35 W/m2
17:34 26 °C 15.6 °C 1013.4 hPa NW 4.7 km/h 24.1 km/h 52.8% 0 mm 35 W/m2
17:39 26 °C 15.6 °C 1013.4 hPa WNW 2.7 km/h 22.5 km/h 52.8% 0 mm 35 W/m2
17:44 26 °C 16 °C 1013.4 hPa NW 3.5 km/h 22.5 km/h 54% 0 mm 33 W/m2
17:49 26 °C 15.4 °C 1013.4 hPa WNW 7.4 km/h 22.5 km/h 52% 0 mm 33 W/m2
17:54 25.9 °C 15.4 °C 1013.4 hPa WNW 4.5 km/h 22.5 km/h 52.3% 0 mm 32 W/m2
17:59 25.8 °C 15.4 °C 1013.4 hPa NNW 2.3 km/h 22.5 km/h 52.7% 0 mm 32 W/m2
18:04 25.7 °C 15.3 °C 1013.4 hPa NNW 2.7 km/h 22.5 km/h 52.8% 0 mm 32 W/m2
18:09 25.6 °C 15.4 °C 1013.4 hPa NW 1.9 km/h 9.7 km/h 53.5% 0 mm 30 W/m2
18:14 25.5 °C 15.4 °C 1013.4 hPa NW 1.8 km/h 11.3 km/h 53.8% 0 mm 30 W/m2
18:19 25.4 °C 15.3 °C 1013.4 hPa NW 2.9 km/h 17.7 km/h 53.5% 0 mm 28 W/m2
18:24 25.3 °C 15.3 °C 1013.8 hPa NW 3.7 km/h 17.7 km/h 53.7% 0 mm 28 W/m2
18:29 25.2 °C 15.2 °C 1013.8 hPa NW 1.3 km/h 17.7 km/h 53.8% 0 mm 32 W/m2
18:34 25.2 °C 15.1 °C 1013.8 hPa NW 5.1 km/h 17.7 km/h 53.6% 0 mm 32 W/m2
18:39 25.1 °C 15.1 °C 1013.8 hPa NW 3.7 km/h 17.7 km/h 54% 0 mm 28 W/m2
18:44 24.9 °C 15.3 °C 1014.1 hPa NW 0.2 km/h 17.7 km/h 55.1% 0 mm 28 W/m2
18:49 24.8 °C 15.3 °C 1014.1 hPa NW 3.1 km/h 17.7 km/h 55.3% 0 mm 28 W/m2
18:54 24.8 °C 15.2 °C 1014.1 hPa NNW 1.8 km/h 17.7 km/h 55.2% 0 mm 25 W/m2
18:59 24.7 °C 15.3 °C 1014.1 hPa NW 1.6 km/h 17.7 km/h 55.8% 0 mm 23 W/m2
19:04 24.7 °C 15.4 °C 1014.1 hPa NW 1.4 km/h 17.7 km/h 56.3% 0 mm 21 W/m2
19:09 24.7 °C 15.7 °C 1014.1 hPa NW 0.2 km/h 8 km/h 57.5% 0 mm 21 W/m2
19:14 24.6 °C 15.7 °C 1014.1 hPa NW 2.1 km/h 11.3 km/h 57.8% 0 mm 19 W/m2
19:19 24.6 °C 15.6 °C 1014.4 hPa NW 0.2 km/h 11.3 km/h 57.5% 0 mm 19 W/m2
19:24 24.4 °C 15.8 °C 1014.4 hPa NW 0.2 km/h 11.3 km/h 58.4% 0 mm 18 W/m2
19:29 24.4 °C 15.8 °C 1014.4 hPa Calm   11.3 km/h 58.8% 0 mm 16 W/m2
19:34 24.3 °C 15.8 °C 1014.4 hPa Calm   11.3 km/h 59% 0 mm 14 W/m2
19:39 24.3 °C 15.7 °C 1014.8 hPa Calm   1.6 km/h 58.9% 0 mm 12 W/m2
19:44 24.2 °C 15.7 °C 1014.8 hPa Calm   1.6 km/h 59.1% 0 mm 11 W/m2
19:49 24.1 °C 15.8 °C 1014.8 hPa Calm   1.6 km/h 60% 0 mm 9 W/m2
19:54 24 °C 15.8 °C 1014.8 hPa Calm   1.6 km/h 60% 0 mm 7 W/m2
19:59 23.9 °C 15.9 °C 1014.8 hPa Calm   1.6 km/h 60.8% 0 mm 0 W/m2
20:00 23.8 °C 15.9 °C 1014.8 hPa Calm   1.6 km/h 61% 0 mm 0 W/m2
20:09 23.7 °C 16 °C 1014.8 hPa Calm     62.1% 0 mm 0 W/m2
20:14 23.5 °C 16.1 °C 1014.8 hPa Calm     63% 0 mm 0 W/m2
20:19 23.3 °C 16.1 °C 1015.1 hPa Calm     63.9% 0 mm 0 W/m2
20:24 23.1 °C 16.1 °C 1015.1 hPa Calm     64.7% 0 mm 0 W/m2
20:29 22.9 °C 16.2 °C 1015.1 hPa Calm     66.1% 0 mm 0 W/m2
20:34 22.7 °C 16.3 °C 1015.1 hPa Calm     67.2% 0 mm 0 W/m2
20:39 22.5 °C 16.2 °C 1015.1 hPa Calm     67.6% 0 mm 0 W/m2
20:44 22.4 °C 16.2 °C 1015.1 hPa Calm     67.9% 0 mm 0 W/m2
20:49 22.3 °C 16.1 °C 1015.1 hPa Calm     67.8% 0 mm 0 W/m2
20:54 22.2 °C 15.8 °C 1015.5 hPa Calm     67.2% 0 mm 0 W/m2
20:59 22.1 °C 15.7 °C 1015.5 hPa Calm     67% 0 mm 0 W/m2
21:04 22.1 °C 15.9 °C 1015.5 hPa Calm     68.4% 0 mm 0 W/m2
21:09 21.9 °C 16.2 °C 1015.5 hPa Calm     69.9% 0 mm 0 W/m2
21:14 21.7 °C 16 °C 1015.8 hPa Calm     70% 0 mm 0 W/m2
21:19 21.6 °C 16 °C 1015.8 hPa Calm     70.8% 0 mm 0 W/m2
21:24 21.3 °C 16.1 °C 1015.8 hPa Calm     71.8% 0 mm 0 W/m2
21:25 21.3 °C 16.1 °C 1015.8 hPa Calm     72% 0 mm 0 W/m2
21:30 21.1 °C 15.6 °C 1015.8 hPa Calm     71% 0 mm 0 W/m2
22:00 20.3 °C 15.5 °C 1016.1 hPa Calm     74% 0 mm 0 W/m2
23:00 18.8 °C 15.1 °C 1016.5 hPa Calm     79% 0 mm 0 W/m2
23:30 18.4 °C 14.3 °C 1016.8 hPa Calm     77% 0 mm 0 W/m2
Hartford County Weather
Compliments of Weather Underground - 4 mb